createdAt,value
2024-02-29T00:00:32.923Z,8.95
2024-02-29T00:03:01.016Z,7.60
2024-02-29T00:05:28.944Z,8.13
2024-02-29T00:07:57.210Z,8.15
2024-02-29T00:10:27.157Z,8.25
2024-02-29T00:12:55.055Z,9.63
2024-02-29T00:15:25.427Z,8.77
2024-02-29T00:17:53.619Z,8.80
2024-02-29T00:20:21.939Z,9.32
2024-02-29T00:22:49.854Z,8.75
2024-02-29T00:25:18.206Z,9.32
2024-02-29T00:27:49.379Z,10.00
2024-02-29T00:30:21.206Z,9.50
2024-02-29T00:32:55.968Z,9.70
2024-02-29T00:35:33.429Z,9.57
2024-02-29T00:38:04.165Z,10.60
2024-02-29T00:40:34.187Z,10.57
2024-02-29T00:43:03.671Z,9.87
2024-02-29T00:45:35.875Z,9.77
2024-02-29T00:48:04.933Z,11.13
2024-02-29T00:50:35.039Z,10.75
2024-02-29T00:53:03.101Z,9.95
2024-02-29T00:55:31.544Z,10.23
2024-02-29T00:58:00.052Z,9.38
2024-02-29T01:00:29.998Z,9.68
2024-02-29T01:02:58.167Z,10.20
2024-02-29T01:05:26.848Z,9.63
2024-02-29T01:07:58.939Z,10.13
2024-02-29T01:10:27.694Z,11.02
2024-02-29T01:12:57.919Z,11.57
2024-02-29T01:15:26.375Z,11.40
2024-02-29T01:17:56.119Z,12.07
2024-02-29T01:20:24.716Z,11.60
2024-02-29T01:22:53.363Z,12.57
2024-02-29T01:25:21.447Z,12.43
2024-02-29T01:27:49.378Z,13.02
2024-02-29T01:30:17.896Z,13.73
2024-02-29T01:32:45.782Z,13.27
2024-02-29T01:35:15.574Z,13.35
2024-02-29T01:37:44.049Z,13.30
2024-02-29T01:40:12.967Z,13.65
2024-02-29T01:42:42.790Z,14.57
2024-02-29T01:45:11.168Z,14.17
2024-02-29T01:47:40.153Z,14.55
2024-02-29T01:50:10.390Z,14.65
2024-02-29T01:52:40.991Z,13.73
2024-02-29T01:55:09.574Z,13.93
2024-02-29T01:57:38.984Z,14.10
2024-02-29T02:00:10.273Z,13.85
2024-02-29T02:02:40.120Z,15.10
2024-02-29T02:05:09.023Z,14.88
2024-02-29T02:07:37.491Z,14.43
2024-02-29T02:10:09.310Z,15.03
2024-02-29T02:12:37.838Z,14.88
2024-02-29T02:15:06.431Z,15.88
2024-02-29T02:17:34.884Z,15.18
2024-02-29T02:20:02.918Z,15.55
2024-02-29T02:22:32.774Z,14.57
2024-02-29T02:25:00.679Z,14.57
2024-02-29T02:27:29.363Z,15.13
2024-02-29T02:30:02.156Z,16.02
2024-02-29T02:32:30.565Z,15.75
2024-02-29T02:34:58.497Z,15.23
2024-02-29T02:37:26.783Z,16.10
2024-02-29T02:39:56.155Z,15.70
2024-02-29T02:42:27.086Z,14.93
2024-02-29T02:44:55.041Z,15.32
2024-02-29T02:47:23.064Z,15.03
2024-02-29T02:49:51.392Z,15.10
2024-02-29T02:52:19.480Z,14.40
2024-02-29T02:54:47.421Z,15.07
2024-02-29T02:57:16.927Z,14.52
2024-02-29T02:59:45.675Z,14.83
2024-02-29T03:02:14.025Z,14.88
2024-02-29T03:04:41.975Z,14.70
2024-02-29T03:07:09.943Z,14.40
2024-02-29T03:09:39.007Z,15.80
2024-02-29T03:12:08.306Z,15.27
2024-02-29T03:14:37.726Z,14.98
2024-02-29T03:17:05.607Z,14.88
2024-02-29T03:19:33.940Z,13.57
2024-02-29T03:22:02.351Z,15.07
2024-02-29T03:24:30.635Z,16.00
2024-02-29T03:26:58.609Z,14.90
2024-02-29T03:29:26.953Z,14.02
2024-02-29T03:31:56.418Z,15.88
2024-02-29T03:34:26.348Z,15.10
2024-02-29T03:36:54.541Z,15.03
2024-02-29T03:39:23.106Z,14.93
2024-02-29T03:41:51.197Z,15.80
2024-02-29T03:44:19.416Z,14.55
2024-02-29T03:46:47.367Z,15.15
2024-02-29T03:49:17.034Z,14.87
2024-02-29T03:51:45.016Z,15.02
2024-02-29T03:54:13.312Z,15.32
2024-02-29T03:56:41.339Z,14.60
2024-02-29T03:59:09.251Z,14.73
2024-02-29T04:01:40.170Z,14.33
2024-02-29T04:04:08.524Z,14.60
2024-02-29T04:06:37.961Z,14.25
2024-02-29T04:09:05.946Z,14.13
2024-02-29T04:11:34.133Z,14.07
2024-02-29T04:14:02.371Z,14.67
2024-02-29T04:16:39.446Z,13.55
2024-02-29T04:19:09.347Z,13.95
2024-02-29T04:21:39.080Z,13.60
2024-02-29T04:24:08.196Z,13.98
2024-02-29T04:26:38.708Z,15.70
2024-02-29T04:29:06.582Z,14.07
2024-02-29T04:31:34.769Z,14.75
2024-02-29T04:34:03.791Z,14.13
2024-02-29T04:36:32.940Z,14.82
2024-02-29T04:39:02.160Z,14.63
2024-02-29T04:41:30.207Z,15.02
2024-02-29T04:43:58.192Z,16.08
2024-02-29T04:46:26.134Z,16.45
2024-02-29T04:48:54.345Z,16.45
2024-02-29T04:51:22.438Z,16.37
2024-02-29T04:53:50.713Z,16.83
2024-02-29T04:56:21.096Z,16.70
2024-02-29T04:58:50.787Z,16.30
2024-02-29T05:01:19.596Z,16.33
2024-02-29T05:03:48.233Z,16.53
2024-02-29T05:06:17.733Z,17.98
2024-02-29T05:08:45.771Z,17.75
2024-02-29T05:11:20.034Z,17.38
2024-02-29T05:13:50.654Z,17.42
2024-02-29T05:16:20.314Z,18.07
2024-02-29T05:18:48.387Z,16.85
2024-02-29T05:21:17.576Z,17.40
2024-02-29T05:23:46.052Z,17.77
2024-02-29T05:26:14.541Z,17.27
2024-02-29T05:28:42.590Z,16.83
2024-02-29T05:31:11.848Z,17.58
2024-02-29T05:33:42.466Z,17.75
2024-02-29T05:36:10.756Z,16.50
2024-02-29T05:38:41.656Z,16.52
2024-02-29T05:41:09.831Z,17.70
2024-02-29T05:43:38.431Z,17.67
2024-02-29T05:46:07.022Z,17.55
2024-02-29T05:48:38.943Z,17.15
2024-02-29T05:51:08.444Z,17.17
2024-02-29T05:53:36.627Z,17.40
2024-02-29T05:56:05.496Z,17.50
2024-02-29T05:58:33.713Z,17.15
2024-02-29T06:01:01.890Z,17.00
2024-02-29T06:03:30.606Z,17.23
2024-02-29T06:06:01.081Z,18.33
2024-02-29T06:08:31.233Z,17.67
2024-02-29T06:10:59.653Z,17.17
2024-02-29T06:13:29.951Z,17.63
2024-02-29T06:15:58.187Z,17.40
2024-02-29T06:18:26.231Z,17.20
2024-02-29T06:20:54.595Z,18.17
2024-02-29T06:23:24.130Z,18.75
2024-02-29T06:25:54.814Z,18.02
2024-02-29T06:28:24.518Z,17.27
2024-02-29T06:30:55.305Z,17.53
2024-02-29T06:33:25.626Z,17.73
2024-02-29T06:35:54.075Z,16.77
2024-02-29T06:38:24.629Z,16.20
2024-02-29T06:40:52.724Z,15.88
2024-02-29T06:43:21.053Z,16.80
2024-02-29T06:45:49.452Z,15.73
2024-02-29T06:48:20.837Z,17.08
2024-02-29T06:50:51.664Z,16.83
2024-02-29T06:53:20.373Z,16.10
2024-02-29T06:55:49.935Z,14.93
2024-02-29T06:58:18.525Z,16.42
2024-02-29T07:00:46.837Z,15.73
2024-02-29T07:03:14.809Z,15.90
2024-02-29T07:05:42.921Z,16.27
2024-02-29T07:08:14.735Z,15.80
2024-02-29T07:10:43.912Z,15.75
2024-02-29T07:13:14.403Z,16.77
2024-02-29T07:15:45.340Z,14.75
2024-02-29T07:18:17.440Z,16.40
2024-02-29T07:20:45.835Z,15.03
2024-02-29T07:23:14.242Z,16.23
2024-02-29T07:25:42.836Z,17.15
2024-02-29T07:28:11.682Z,16.40
2024-02-29T07:30:47.885Z,16.13
2024-02-29T07:33:16.175Z,15.87
2024-02-29T07:35:45.545Z,15.57
2024-02-29T07:54:21.010Z,13.18
2024-02-29T07:57:33.315Z,13.35
2024-02-29T08:00:26.784Z,14.52
2024-02-29T08:02:56.114Z,14.07
2024-02-29T08:05:32.944Z,14.07
2024-02-29T08:08:12.765Z,14.48
2024-02-29T08:10:41.214Z,14.75
2024-02-29T08:13:09.128Z,14.88
2024-02-29T08:15:40.674Z,15.23
2024-02-29T08:18:12.500Z,15.70
2024-02-29T08:20:40.675Z,16.30
2024-02-29T08:23:08.529Z,15.10
2024-02-29T08:25:35.450Z,15.93
2024-02-29T08:28:07.858Z,16.00
2024-02-29T08:30:35.801Z,16.20
2024-02-29T08:33:05.543Z,16.95
2024-02-29T08:35:34.130Z,15.40
2024-02-29T08:38:02.026Z,16.05
2024-02-29T08:40:31.747Z,15.45
2024-02-29T08:43:00.526Z,15.30
2024-02-29T08:45:28.699Z,15.55
2024-02-29T08:47:56.708Z,14.43
2024-02-29T08:50:28.958Z,14.63
2024-02-29T08:52:57.886Z,15.80
2024-02-29T08:55:28.782Z,15.47
2024-02-29T08:57:59.828Z,16.35
2024-02-29T09:00:31.272Z,15.50
2024-02-29T09:02:59.132Z,16.00
2024-02-29T09:05:29.302Z,16.08
2024-02-29T09:08:00.115Z,15.50
2024-02-29T09:10:28.355Z,15.93
2024-02-29T09:12:56.539Z,16.10
2024-02-29T09:15:24.493Z,15.57
2024-02-29T09:17:53.662Z,15.38
2024-02-29T09:20:21.876Z,15.10
2024-02-29T09:22:51.972Z,14.38
2024-02-29T09:25:20.681Z,14.85
2024-02-29T09:27:48.829Z,14.95
2024-02-29T09:30:16.825Z,14.48
2024-02-29T09:32:45.445Z,14.43
2024-02-29T09:35:13.610Z,14.10
2024-02-29T09:37:41.751Z,14.68
2024-02-29T09:40:12.969Z,13.05
2024-02-29T09:42:41.132Z,15.20
2024-02-29T09:45:12.823Z,14.30
2024-02-29T09:47:44.951Z,14.55
2024-02-29T09:50:13.661Z,14.75
2024-02-29T09:52:41.742Z,14.57
2024-02-29T09:55:15.247Z,15.05
2024-02-29T09:57:43.676Z,14.73
2024-02-29T10:00:37.018Z,14.68
2024-02-29T10:03:06.776Z,14.70
2024-02-29T10:05:34.929Z,14.30
2024-02-29T10:08:05.867Z,13.90
2024-02-29T10:10:36.958Z,14.70
2024-02-29T10:13:07.237Z,14.65
2024-02-29T10:15:35.868Z,14.57
2024-02-29T10:18:04.458Z,13.75
2024-02-29T10:20:34.078Z,14.70
2024-02-29T10:23:01.991Z,15.47
2024-02-29T10:25:30.220Z,14.45
2024-02-29T10:28:06.398Z,14.15
2024-02-29T10:30:34.727Z,13.90
2024-02-29T10:33:03.319Z,13.68
2024-02-29T10:35:31.691Z,13.77
2024-02-29T10:37:59.812Z,13.45
2024-02-29T10:40:28.783Z,15.40
2024-02-29T10:42:57.846Z,14.50
2024-02-29T10:45:32.244Z,14.57
2024-02-29T10:48:15.691Z,15.20
2024-02-29T10:50:47.936Z,13.93
2024-02-29T10:53:23.209Z,13.32
2024-02-29T10:55:57.224Z,14.52
2024-02-29T10:58:30.814Z,14.68
2024-02-29T11:01:04.119Z,13.83
2024-02-29T11:03:33.789Z,14.65
2024-02-29T11:06:02.959Z,14.90
2024-02-29T11:08:31.153Z,15.27
2024-02-29T11:10:59.978Z,16.17
2024-02-29T11:13:32.121Z,16.20
2024-02-29T11:16:05.906Z,15.40
2024-02-29T11:18:35.120Z,16.05
2024-02-29T11:21:05.224Z,15.52
2024-02-29T11:23:45.294Z,15.40
2024-02-29T11:26:15.056Z,15.60
2024-02-29T11:28:44.432Z,15.20
2024-02-29T11:31:20.230Z,16.27
2024-02-29T11:33:52.653Z,15.82
2024-02-29T11:36:25.328Z,15.90
2024-02-29T11:38:56.691Z,16.07
2024-02-29T11:41:30.174Z,15.07
2024-02-29T11:43:58.218Z,15.30
2024-02-29T11:46:28.648Z,16.30
2024-02-29T11:48:57.948Z,16.13
2024-02-29T11:51:28.095Z,16.27
2024-02-29T11:53:56.589Z,15.65
2024-02-29T11:56:24.671Z,16.30
2024-02-29T11:58:54.765Z,15.48
2024-02-29T12:01:24.958Z,15.90
2024-02-29T12:03:55.040Z,15.10
2024-02-29T12:06:22.934Z,14.80
2024-02-29T12:08:50.914Z,14.68
2024-02-29T12:11:22.356Z,14.23
2024-02-29T12:13:50.712Z,12.90
2024-02-29T12:16:19.707Z,14.60
2024-02-29T12:18:47.967Z,13.20
2024-02-29T12:21:18.362Z,13.93
2024-02-29T12:23:48.539Z,13.40
2024-02-29T12:26:17.381Z,13.25
2024-02-29T12:28:49.380Z,13.00
2024-02-29T12:31:23.340Z,12.30
2024-02-29T12:33:55.300Z,12.73
2024-02-29T12:45:42.489Z,10.38
2024-02-29T12:49:06.661Z,10.13
2024-02-29T12:51:35.099Z,9.80
2024-02-29T12:54:03.998Z,9.80
2024-02-29T12:56:32.972Z,9.93
2024-02-29T12:59:03.797Z,10.30
2024-02-29T13:01:38.987Z,11.32
2024-02-29T13:04:07.596Z,10.13
2024-02-29T13:06:36.775Z,9.93
2024-02-29T13:09:07.022Z,8.70
2024-02-29T13:11:35.414Z,8.85
2024-02-29T13:14:04.521Z,9.25
2024-02-29T13:16:36.644Z,9.52
2024-02-29T13:19:05.114Z,9.18
2024-02-29T13:21:33.614Z,9.13
2024-02-29T13:24:02.005Z,8.80
2024-02-29T13:26:30.086Z,8.52
2024-02-29T13:28:58.734Z,8.20
2024-02-29T13:31:45.081Z,9.45
2024-02-29T13:34:24.836Z,7.90
2024-02-29T13:37:02.285Z,8.20
2024-02-29T13:39:40.564Z,8.07
2024-02-29T13:42:14.214Z,7.95
2024-02-29T13:44:48.211Z,8.05
2024-02-29T13:47:30.950Z,7.20
2024-02-29T13:50:11.564Z,6.63
2024-02-29T13:52:46.232Z,7.22
2024-02-29T13:55:14.878Z,6.60
2024-02-29T13:57:44.262Z,6.88
2024-02-29T14:00:13.470Z,6.87
2024-02-29T14:02:49.883Z,6.57
2024-02-29T14:05:22.721Z,6.53
2024-02-29T14:07:54.013Z,6.78
2024-02-29T14:10:22.910Z,6.90
2024-02-29T14:12:50.922Z,6.97
2024-02-29T14:15:23.433Z,6.55
2024-02-29T14:17:55.283Z,5.93
2024-02-29T14:20:27.319Z,5.90
2024-02-29T14:22:55.397Z,5.88
2024-02-29T14:25:24.991Z,5.70
2024-02-29T14:27:54.445Z,5.50
2024-02-29T14:30:24.117Z,5.57
2024-02-29T14:32:52.293Z,6.10
2024-02-29T14:35:26.309Z,5.40
2024-02-29T14:37:59.312Z,5.80
2024-02-29T14:40:28.530Z,5.97
2024-02-29T14:42:57.432Z,6.70
2024-02-29T14:45:26.008Z,5.50
2024-02-29T14:47:54.627Z,5.47
2024-02-29T14:50:23.038Z,5.70
2024-02-29T14:52:52.021Z,5.13
2024-02-29T14:55:21.779Z,5.63
2024-02-29T14:57:50.122Z,5.03
2024-02-29T15:00:25.048Z,4.95
2024-02-29T15:02:53.135Z,4.93
2024-02-29T15:05:24.457Z,5.38
2024-02-29T15:13:37.690Z,3.72
2024-02-29T15:21:22.190Z,2.67
2024-02-29T15:23:50.968Z,2.50
2024-02-29T15:26:18.950Z,3.05
2024-02-29T15:28:49.970Z,2.90
2024-02-29T15:31:18.428Z,3.03
2024-02-29T15:33:49.309Z,3.07
2024-02-29T15:36:19.846Z,2.90
2024-02-29T15:38:48.496Z,2.88
2024-02-29T15:41:17.296Z,2.88
2024-02-29T15:43:50.884Z,2.80
2024-02-29T15:46:19.652Z,3.10
2024-02-29T15:48:48.016Z,3.50
2024-02-29T15:51:16.350Z,3.30
2024-02-29T15:53:47.376Z,3.58
2024-02-29T15:56:16.414Z,4.10
2024-02-29T15:58:46.328Z,4.53
2024-02-29T16:01:14.889Z,3.70
2024-02-29T16:03:47.184Z,3.90
2024-02-29T16:06:16.772Z,3.70
2024-02-29T16:08:48.242Z,3.75
2024-02-29T16:11:21.368Z,3.70
2024-02-29T16:13:51.033Z,3.75
2024-02-29T16:16:20.651Z,4.10
2024-02-29T16:18:49.630Z,4.60
2024-02-29T16:21:19.017Z,4.43
2024-02-29T16:23:50.466Z,4.97
2024-02-29T16:26:21.533Z,4.20
2024-02-29T16:28:53.684Z,4.38
2024-02-29T16:31:31.413Z,4.35
2024-02-29T16:34:01.551Z,4.32
2024-02-29T16:36:31.013Z,4.73
2024-02-29T16:39:02.070Z,5.15
2024-02-29T16:41:35.345Z,4.90
2024-02-29T16:44:21.999Z,5.00
2024-02-29T16:47:00.126Z,5.40
2024-02-29T16:49:32.338Z,5.63
2024-02-29T16:52:01.474Z,5.90
2024-02-29T16:54:32.940Z,6.40
2024-02-29T16:57:02.247Z,6.30
2024-02-29T16:59:30.994Z,6.10
2024-02-29T17:02:00.593Z,5.80
2024-02-29T17:04:39.331Z,6.60
2024-02-29T17:07:07.652Z,6.47
2024-02-29T17:09:39.902Z,6.28
2024-02-29T17:12:09.793Z,6.20
2024-02-29T17:14:37.652Z,6.33
2024-02-29T17:17:07.157Z,6.88
2024-02-29T17:19:35.454Z,7.03
2024-02-29T17:22:04.897Z,6.88
2024-02-29T17:24:40.221Z,6.88
2024-02-29T17:27:08.597Z,7.07
2024-02-29T17:29:38.660Z,6.72
2024-02-29T17:32:07.709Z,6.57
2024-02-29T17:34:40.464Z,6.75
2024-02-29T17:37:11.704Z,7.47
2024-02-29T17:39:48.126Z,6.60
2024-02-29T17:42:22.419Z,7.50
2024-02-29T17:44:53.782Z,7.78
2024-02-29T17:47:25.166Z,7.57
2024-02-29T17:49:57.040Z,7.43
2024-02-29T17:52:26.407Z,7.10
2024-02-29T17:54:59.363Z,7.65
2024-02-29T17:57:53.024Z,7.60
2024-02-29T18:00:22.563Z,7.70
2024-02-29T18:02:50.967Z,7.72
2024-02-29T18:05:19.145Z,7.50
2024-02-29T18:07:58.964Z,7.43
2024-02-29T18:10:43.966Z,9.43
2024-02-29T18:13:16.672Z,7.72
2024-02-29T18:15:55.513Z,7.75
2024-02-29T18:18:36.316Z,7.50
2024-02-29T18:21:11.210Z,7.43
2024-02-29T18:23:41.168Z,7.57
2024-02-29T18:26:16.439Z,7.50
2024-02-29T18:28:46.687Z,7.53
2024-02-29T18:31:15.114Z,7.50
2024-02-29T18:33:45.897Z,8.07
2024-02-29T18:36:14.850Z,8.63
2024-02-29T18:38:48.434Z,8.90
2024-02-29T18:41:19.040Z,8.70
2024-02-29T18:43:47.688Z,8.67
2024-02-29T18:46:17.619Z,8.30
2024-02-29T18:48:46.421Z,8.75
2024-02-29T18:51:14.495Z,8.73
2024-02-29T18:53:43.063Z,8.73
2024-02-29T18:56:11.380Z,9.60
2024-02-29T18:58:43.152Z,8.85
2024-02-29T19:01:11.265Z,9.43
2024-02-29T19:03:39.890Z,9.48
2024-02-29T19:06:08.819Z,10.05
2024-02-29T19:08:40.259Z,9.47
2024-02-29T19:11:08.429Z,9.43
2024-02-29T19:13:37.271Z,10.10
2024-02-29T19:16:08.629Z,9.25
2024-02-29T19:18:37.529Z,10.52
2024-02-29T19:21:05.687Z,9.57
2024-02-29T19:23:34.026Z,10.50
2024-02-29T19:26:03.232Z,10.32
2024-02-29T19:28:34.214Z,11.82
2024-02-29T19:31:05.663Z,12.38
2024-02-29T19:33:36.507Z,12.73
2024-02-29T19:36:15.901Z,12.80
2024-02-29T19:38:51.338Z,12.32
2024-02-29T19:41:19.339Z,13.55
2024-02-29T19:43:48.252Z,13.52
2024-02-29T19:46:17.438Z,13.53
2024-02-29T19:48:47.618Z,13.27
2024-02-29T19:51:17.766Z,13.95
2024-02-29T19:53:56.845Z,12.63
2024-02-29T19:56:29.573Z,13.70
2024-02-29T19:59:00.005Z,13.90
2024-02-29T20:01:28.138Z,13.43
2024-02-29T20:03:58.325Z,13.15
2024-02-29T20:06:26.894Z,13.57
2024-02-29T20:08:54.902Z,12.88
2024-02-29T20:11:24.194Z,14.07
2024-02-29T20:13:58.712Z,14.27
2024-02-29T20:16:30.351Z,13.93
2024-02-29T20:19:00.512Z,13.20
2024-02-29T20:21:29.382Z,13.73
2024-02-29T20:23:58.196Z,13.33
2024-02-29T20:26:27.753Z,12.93
2024-02-29T20:28:56.072Z,13.88
2024-02-29T20:31:24.621Z,13.65
2024-02-29T20:33:56.998Z,13.52
2024-02-29T20:36:29.676Z,13.20
2024-02-29T20:38:58.073Z,14.25
2024-02-29T20:41:29.324Z,13.75
2024-02-29T20:43:59.638Z,13.75
2024-02-29T20:46:30.525Z,13.98
2024-02-29T20:49:00.152Z,13.57
2024-02-29T20:51:32.024Z,14.23
2024-02-29T20:54:01.124Z,12.77
2024-02-29T20:56:32.410Z,12.45
2024-02-29T20:59:05.245Z,13.05
2024-02-29T21:01:34.066Z,12.77
2024-02-29T21:04:02.603Z,14.15
2024-02-29T21:06:33.320Z,13.40
2024-02-29T21:09:01.731Z,12.95
2024-02-29T21:11:29.846Z,13.88
2024-02-29T21:13:58.447Z,13.33
2024-02-29T21:16:26.950Z,12.23
2024-02-29T21:18:55.195Z,13.38
2024-02-29T21:21:25.764Z,13.20
2024-02-29T21:23:56.164Z,12.02
2024-02-29T21:26:27.636Z,11.80
2024-02-29T21:28:56.012Z,12.10
2024-02-29T21:31:25.005Z,12.40
2024-02-29T21:33:53.718Z,12.80
2024-02-29T21:36:21.929Z,12.13
2024-02-29T21:38:49.888Z,11.77
2024-02-29T21:41:23.024Z,11.95
2024-02-29T21:43:51.894Z,11.48
2024-02-29T21:46:20.186Z,12.52
2024-02-29T21:48:49.890Z,12.07
2024-02-29T21:51:18.997Z,10.60
2024-02-29T21:53:48.003Z,10.98
2024-02-29T21:56:16.567Z,11.18
2024-02-29T21:58:46.685Z,10.60
2024-02-29T22:01:14.712Z,11.45
2024-02-29T22:03:43.217Z,10.70
2024-02-29T22:06:11.608Z,10.02
2024-02-29T22:08:39.984Z,10.23
2024-02-29T22:11:10.150Z,10.88
2024-02-29T22:13:38.376Z,9.88
2024-02-29T22:16:09.404Z,11.17
2024-02-29T22:18:38.169Z,9.93
2024-02-29T22:21:06.675Z,10.15
2024-02-29T22:23:35.420Z,10.00
2024-02-29T22:26:03.549Z,10.30
2024-02-29T22:28:32.921Z,8.93
2024-02-29T22:31:01.111Z,9.35
2024-02-29T22:33:31.211Z,9.45
2024-02-29T22:35:59.712Z,8.35
2024-02-29T22:38:28.341Z,8.48
2024-02-29T22:40:56.646Z,7.27
2024-02-29T22:43:25.142Z,8.43
2024-02-29T22:45:53.594Z,8.02
2024-02-29T22:48:21.747Z,8.45
2024-02-29T22:50:51.372Z,7.40
2024-02-29T22:53:19.737Z,7.80
2024-02-29T22:55:51.465Z,7.63
2024-02-29T22:58:21.029Z,8.77
2024-02-29T23:03:22.423Z,8.10
2024-02-29T23:05:52.205Z,8.50
2024-02-29T23:08:20.995Z,7.90
2024-02-29T23:10:49.528Z,8.18
2024-02-29T23:13:17.925Z,8.30
2024-02-29T23:15:46.501Z,8.77
2024-02-29T23:18:15.048Z,7.83
2024-02-29T23:20:43.746Z,8.02
2024-02-29T23:23:13.438Z,8.60
2024-02-29T23:25:41.353Z,7.95
2024-02-29T23:28:09.753Z,8.27
2024-02-29T23:30:38.281Z,8.00
2024-02-29T23:33:06.584Z,7.90
2024-02-29T23:35:34.665Z,8.18
2024-02-29T23:38:02.889Z,7.82
2024-02-29T23:40:33.040Z,7.90
2024-02-29T23:43:01.176Z,7.93
2024-02-29T23:45:29.539Z,7.80
2024-02-29T23:47:58.049Z,8.00
2024-02-29T23:50:26.794Z,8.27
2024-02-29T23:52:54.614Z,7.75
2024-02-29T23:55:27.308Z,8.30
2024-02-29T23:57:57.580Z,8.70
